createdAt,value
2023-04-02T00:00:25.972Z,15.13
2023-04-02T00:01:37.060Z,14.93
2023-04-02T00:02:48.152Z,14.68
2023-04-02T00:04:15.675Z,14.85
2023-04-02T00:05:44.099Z,15.17
2023-04-02T00:06:47.775Z,14.48
2023-04-02T00:07:53.723Z,14.88
2023-04-02T00:08:58.561Z,14.43
2023-04-02T00:10:02.212Z,15.00
2023-04-02T00:11:07.146Z,14.57
2023-04-02T00:12:18.720Z,16.08
2023-04-02T00:13:30.362Z,15.00
2023-04-02T00:14:35.105Z,15.95
2023-04-02T00:15:39.318Z,15.82
2023-04-02T00:16:43.484Z,15.90
2023-04-02T00:17:47.187Z,15.32
2023-04-02T00:18:55.346Z,15.18
2023-04-02T00:20:01.226Z,16.15
2023-04-02T00:21:20.188Z,16.00
2023-04-02T00:22:29.962Z,15.80
2023-04-02T00:23:33.688Z,15.23
2023-04-02T00:24:39.986Z,16.33
2023-04-02T00:25:45.572Z,15.90
2023-04-02T00:26:51.215Z,16.88
2023-04-02T00:27:56.876Z,16.97
2023-04-02T00:29:12.130Z,15.88
2023-04-02T00:30:17.258Z,15.52
2023-04-02T00:31:21.673Z,15.93
2023-04-02T00:32:28.063Z,14.77
2023-04-02T00:33:33.982Z,15.33
2023-04-02T00:34:41.344Z,15.10
2023-04-02T00:35:45.061Z,15.70
2023-04-02T00:36:49.658Z,14.60
2023-04-02T00:37:53.666Z,15.73
2023-04-02T00:38:59.911Z,15.20
2023-04-02T00:40:08.023Z,15.73
2023-04-02T00:41:17.042Z,16.38
2023-04-02T00:42:21.567Z,15.25
2023-04-02T00:43:28.717Z,16.08
2023-04-02T00:44:33.381Z,15.20
2023-04-02T00:45:39.270Z,16.25
2023-04-02T00:46:45.446Z,16.33
2023-04-02T00:47:49.191Z,15.82
2023-04-02T00:48:58.457Z,16.20
2023-04-02T00:50:07.294Z,15.27
2023-04-02T00:51:18.806Z,15.38
2023-04-02T00:52:27.012Z,15.90
2023-04-02T00:53:31.801Z,16.15
2023-04-02T00:54:43.122Z,15.25
2023-04-02T00:55:47.136Z,16.20
2023-04-02T00:56:54.450Z,15.63
2023-04-02T00:58:00.387Z,16.40
2023-04-02T00:59:05.997Z,16.70
2023-04-02T01:00:21.304Z,17.10
2023-04-02T01:01:27.315Z,16.43
2023-04-02T01:02:34.291Z,16.40
2023-04-02T01:03:38.221Z,16.67
2023-04-02T01:04:42.787Z,17.13
2023-04-02T01:05:48.457Z,16.25
2023-04-02T01:06:52.195Z,17.50
2023-04-02T01:08:09.642Z,16.42
2023-04-02T01:09:28.693Z,16.02
2023-04-02T01:10:52.768Z,17.30
2023-04-02T01:12:11.221Z,17.52
2023-04-02T01:13:26.308Z,17.00
2023-04-02T01:14:45.557Z,17.48
2023-04-02T01:15:57.205Z,17.75
2023-04-02T01:17:10.887Z,16.25
2023-04-02T01:18:43.343Z,17.30
2023-04-02T01:20:19.418Z,17.17
2023-04-02T01:21:54.683Z,16.70
2023-04-02T01:23:05.286Z,17.02
2023-04-02T01:24:11.718Z,16.55
2023-04-02T01:25:20.027Z,16.52
2023-04-02T01:26:35.507Z,17.60
2023-04-02T01:27:44.599Z,16.48
2023-04-02T01:29:06.400Z,16.42
2023-04-02T01:30:11.929Z,16.10
2023-04-02T01:31:16.931Z,17.20
2023-04-02T01:32:24.166Z,17.07
2023-04-02T01:33:31.894Z,17.00
2023-04-02T01:34:36.780Z,16.85
2023-04-02T01:35:45.620Z,16.95
2023-04-02T01:37:03.097Z,17.65
2023-04-02T01:38:14.414Z,17.60
2023-04-02T01:39:32.444Z,16.83
2023-04-02T01:40:40.578Z,16.77
2023-04-02T01:41:52.352Z,17.73
2023-04-02T01:43:05.165Z,17.52
2023-04-02T01:44:14.830Z,17.40
2023-04-02T01:45:21.203Z,16.98
2023-04-02T01:46:30.302Z,17.48
2023-04-02T01:47:34.367Z,17.20
2023-04-02T01:48:41.085Z,18.02
2023-04-02T01:49:45.660Z,17.97
2023-04-02T01:50:52.506Z,17.83
2023-04-02T01:51:57.018Z,17.38
2023-04-02T01:53:03.136Z,17.65
2023-04-02T01:54:07.171Z,17.25
2023-04-02T01:55:13.151Z,17.00
2023-04-02T01:56:17.426Z,17.00
2023-04-02T01:57:21.178Z,17.45
2023-04-02T01:58:27.110Z,17.52
2023-04-02T01:59:32.758Z,17.52
2023-04-02T02:00:38.831Z,17.03
2023-04-02T02:01:46.713Z,18.58
2023-04-02T02:02:52.466Z,18.70
2023-04-02T02:03:56.354Z,17.50
2023-04-02T02:05:00.109Z,17.08
2023-04-02T02:06:06.513Z,18.33
2023-04-02T02:07:17.146Z,18.52
2023-04-02T02:08:32.579Z,18.20
2023-04-02T02:09:37.103Z,18.70
2023-04-02T02:10:40.922Z,19.30
2023-04-02T02:11:44.617Z,18.73
2023-04-02T02:12:48.808Z,18.98
2023-04-02T02:13:55.849Z,17.75
2023-04-02T02:15:01.104Z,17.90
2023-04-02T02:16:05.986Z,18.85
2023-04-02T02:17:14.899Z,19.70
2023-04-02T02:18:22.348Z,19.02
2023-04-02T02:19:29.929Z,19.60
2023-04-02T02:20:35.080Z,18.80
2023-04-02T02:21:40.999Z,19.25
2023-04-02T02:22:47.131Z,19.40
2023-04-02T02:23:52.980Z,19.92
2023-04-02T02:24:58.345Z,19.23
2023-04-02T02:26:01.989Z,19.20
2023-04-02T02:27:37.497Z,18.95
2023-04-02T02:28:43.616Z,19.17
2023-04-02T02:29:50.310Z,18.80
2023-04-02T02:30:58.871Z,21.13
2023-04-02T02:32:04.527Z,19.77
2023-04-02T02:33:15.415Z,20.20
2023-04-02T02:34:25.903Z,19.47
2023-04-02T02:35:35.011Z,19.52
2023-04-02T02:36:48.082Z,18.02
2023-04-02T02:37:58.207Z,17.88
2023-04-02T02:39:06.194Z,18.30
2023-04-02T02:40:16.835Z,17.20
2023-04-02T02:41:26.675Z,19.77
2023-04-02T02:42:36.266Z,18.88
2023-04-02T02:43:44.524Z,19.17
2023-04-02T02:44:50.712Z,18.15
2023-04-02T02:45:58.370Z,19.33
2023-04-02T02:47:04.456Z,19.42
2023-04-02T02:48:14.524Z,20.48
2023-04-02T02:49:22.108Z,19.70
2023-04-02T02:50:29.502Z,20.35
2023-04-02T02:51:44.949Z,19.27
2023-04-02T02:52:53.694Z,19.88
2023-04-02T02:54:03.852Z,19.52
2023-04-02T02:55:10.900Z,21.67
2023-04-02T02:56:15.246Z,22.90
2023-04-02T02:57:22.451Z,20.43
2023-04-02T02:58:29.058Z,21.27
2023-04-02T02:59:33.139Z,21.20
2023-04-02T03:00:38.299Z,20.33
2023-04-02T03:01:45.250Z,21.25
2023-04-02T03:02:49.636Z,21.03
2023-04-02T03:03:55.660Z,20.98
2023-04-02T03:04:59.489Z,20.88
2023-04-02T03:06:06.406Z,20.13
2023-04-02T03:07:10.406Z,21.05
2023-04-02T03:08:22.053Z,21.47
2023-04-02T03:09:38.001Z,21.48
2023-04-02T03:10:48.494Z,20.50
2023-04-02T03:11:58.004Z,20.50
2023-04-02T03:13:08.865Z,21.63
2023-04-02T03:14:21.071Z,22.17
2023-04-02T03:15:34.059Z,21.10
2023-04-02T03:16:42.241Z,21.75
2023-04-02T03:17:52.261Z,22.80
2023-04-02T03:18:59.848Z,22.98
2023-04-02T03:20:11.578Z,22.47
2023-04-02T03:21:26.750Z,21.35
2023-04-02T03:22:36.386Z,23.17
2023-04-02T03:23:44.563Z,22.75
2023-04-02T03:24:56.410Z,23.98
2023-04-02T03:26:05.162Z,23.17
2023-04-02T03:27:16.119Z,23.65
2023-04-02T03:28:24.329Z,23.25
2023-04-02T03:29:30.966Z,22.13
2023-04-02T03:30:41.152Z,22.35
2023-04-02T03:31:48.753Z,20.83
2023-04-02T03:33:00.147Z,19.70
2023-04-02T03:34:10.447Z,20.25
2023-04-02T03:35:23.206Z,21.17
2023-04-02T03:36:31.571Z,21.27
2023-04-02T03:37:43.558Z,20.90
2023-04-02T03:38:51.369Z,21.63
2023-04-02T03:40:00.322Z,22.23
2023-04-02T03:41:14.401Z,20.52
2023-04-02T03:42:22.503Z,22.42
2023-04-02T03:43:27.918Z,21.93
2023-04-02T03:44:36.045Z,20.80
2023-04-02T03:45:42.818Z,19.67
2023-04-02T03:46:50.010Z,21.30
2023-04-02T03:48:01.663Z,20.17
2023-04-02T03:49:10.533Z,21.33
2023-04-02T03:50:20.979Z,20.05
2023-04-02T03:51:28.452Z,20.48
2023-04-02T03:52:35.885Z,20.35
2023-04-02T03:53:39.965Z,20.40
2023-04-02T03:54:54.066Z,20.00
2023-04-02T03:55:59.473Z,19.63
2023-04-02T03:57:03.637Z,19.38
2023-04-02T03:58:14.698Z,20.25
2023-04-02T03:59:27.603Z,20.02
2023-04-02T04:00:38.337Z,20.57
2023-04-02T04:01:48.795Z,19.55
2023-04-02T04:02:57.642Z,21.38
2023-04-02T04:04:08.713Z,20.23
2023-04-02T04:05:23.900Z,21.25
2023-04-02T04:06:29.851Z,21.77
2023-04-02T04:07:40.232Z,23.00
2023-04-02T04:08:48.050Z,21.88
2023-04-02T04:09:54.241Z,20.73
2023-04-02T04:11:02.628Z,20.83
2023-04-02T04:12:15.699Z,19.97
2023-04-02T04:13:26.702Z,20.88
2023-04-02T04:14:33.667Z,19.92
2023-04-02T04:15:42.995Z,21.33
2023-04-02T04:16:52.237Z,19.95
2023-04-02T04:18:03.736Z,20.10
2023-04-02T04:19:16.271Z,20.55
2023-04-02T04:20:24.839Z,20.77
2023-04-02T04:21:29.621Z,19.80
2023-04-02T04:22:33.345Z,18.52
2023-04-02T04:23:39.250Z,19.93
2023-04-02T04:24:42.931Z,20.25
2023-04-02T04:25:46.638Z,18.05
2023-04-02T04:26:56.323Z,18.75
2023-04-02T04:28:08.518Z,18.70
2023-04-02T04:29:26.899Z,18.07
2023-04-02T04:30:35.534Z,18.48
2023-04-02T04:31:44.379Z,17.58
2023-04-02T04:32:51.116Z,16.92
2023-04-02T04:33:59.527Z,17.73
2023-04-02T04:35:08.537Z,17.73
2023-04-02T04:36:22.640Z,17.95
2023-04-02T04:37:29.467Z,18.02
2023-04-02T04:38:35.748Z,17.77
2023-04-02T04:39:45.618Z,17.48
2023-04-02T04:40:52.198Z,17.30
2023-04-02T04:41:58.103Z,17.27
2023-04-02T04:43:06.997Z,17.65
2023-04-02T04:44:20.173Z,17.17
2023-04-02T04:45:40.433Z,17.08
2023-04-02T04:46:48.044Z,17.97
2023-04-02T04:47:56.685Z,17.88
2023-04-02T04:49:09.325Z,17.40
2023-04-02T04:50:18.770Z,17.10
2023-04-02T04:51:26.207Z,18.10
2023-04-02T04:52:34.299Z,18.80
2023-04-02T04:53:48.353Z,18.27
2023-04-02T04:54:52.236Z,18.10
2023-04-02T04:56:06.019Z,17.05
2023-04-02T04:57:30.186Z,18.13
2023-04-02T04:58:37.239Z,18.50
2023-04-02T04:59:45.237Z,18.52
2023-04-02T05:00:57.306Z,18.08
2023-04-02T05:02:06.177Z,18.10
2023-04-02T05:03:18.304Z,16.58
2023-04-02T05:04:27.412Z,18.23
2023-04-02T05:05:34.798Z,17.63
2023-04-02T05:06:43.363Z,17.23
2023-04-02T05:07:51.711Z,17.85
2023-04-02T05:09:00.176Z,18.10
2023-04-02T05:10:12.223Z,17.83
2023-04-02T05:11:24.539Z,16.77
2023-04-02T05:12:34.449Z,18.83
2023-04-02T05:13:45.028Z,19.27
2023-04-02T05:14:54.561Z,18.50
2023-04-02T05:16:08.301Z,16.60
2023-04-02T05:17:17.839Z,18.48
2023-04-02T05:18:27.229Z,17.90
2023-04-02T05:19:39.760Z,18.20
2023-04-02T05:20:48.555Z,18.98
2023-04-02T05:21:56.269Z,18.73
2023-04-02T05:23:05.496Z,17.30
2023-04-02T05:24:34.112Z,18.55
2023-04-02T05:25:38.858Z,18.42
2023-04-02T05:26:46.454Z,17.65
2023-04-02T05:27:54.124Z,16.93
2023-04-02T05:29:03.470Z,17.35
2023-04-02T05:30:15.766Z,17.50
2023-04-02T05:31:24.508Z,17.92
2023-04-02T05:32:32.342Z,18.23
2023-04-02T05:33:37.470Z,19.00
2023-04-02T05:34:46.307Z,18.48
2023-04-02T05:35:55.051Z,18.42
2023-04-02T05:36:59.125Z,17.48
2023-04-02T05:38:03.750Z,17.48
2023-04-02T05:39:10.903Z,18.73
2023-04-02T05:40:20.114Z,18.75
2023-04-02T05:41:27.944Z,18.77
2023-04-02T05:42:37.058Z,17.92
2023-04-02T05:43:46.424Z,18.95
2023-04-02T05:45:02.472Z,17.77
2023-04-02T05:46:16.270Z,16.80
2023-04-02T05:47:24.605Z,19.30
2023-04-02T05:48:33.066Z,17.98
2023-04-02T05:49:45.382Z,17.50
2023-04-02T05:50:52.038Z,19.10
2023-04-02T05:51:59.676Z,18.30
2023-04-02T05:53:11.523Z,19.17
2023-04-02T05:54:23.501Z,19.90
2023-04-02T05:55:42.181Z,19.13
2023-04-02T05:56:49.868Z,19.97
2023-04-02T05:58:21.317Z,19.33
2023-04-02T05:59:27.961Z,17.85
2023-04-02T06:00:48.511Z,18.38
2023-04-02T06:01:57.857Z,18.70
2023-04-02T06:03:07.178Z,20.60
2023-04-02T06:04:20.593Z,19.83
2023-04-02T06:05:29.527Z,18.48
2023-04-02T06:06:49.707Z,18.50
2023-04-02T06:07:58.699Z,19.05
2023-04-02T06:09:12.339Z,19.87
2023-04-02T06:10:20.747Z,19.00
2023-04-02T06:11:29.349Z,18.50
2023-04-02T06:12:40.018Z,18.38
2023-04-02T06:13:43.741Z,18.02
2023-04-02T06:14:47.592Z,18.23
2023-04-02T06:15:51.398Z,19.67
2023-04-02T06:16:55.263Z,18.90
2023-04-02T06:18:09.655Z,19.75
2023-04-02T06:19:23.234Z,18.98
2023-04-02T06:20:28.858Z,18.30
2023-04-02T06:21:33.274Z,20.05
2023-04-02T06:22:39.838Z,18.80
2023-04-02T06:23:48.068Z,19.08
2023-04-02T06:24:58.589Z,18.67
2023-04-02T06:26:05.525Z,19.80
2023-04-02T06:27:15.704Z,18.17
2023-04-02T06:28:25.272Z,20.90
2023-04-02T06:29:33.955Z,19.67
2023-04-02T06:30:41.934Z,18.67
2023-04-02T06:31:49.566Z,19.67
2023-04-02T06:32:53.345Z,19.20
2023-04-02T06:33:57.887Z,19.40
2023-04-02T06:35:01.593Z,19.42
2023-04-02T06:36:09.962Z,19.45
2023-04-02T06:37:22.063Z,17.90
2023-04-02T06:38:30.556Z,19.35
2023-04-02T06:39:34.273Z,19.50
2023-04-02T06:40:43.276Z,18.25
2023-04-02T06:41:47.174Z,19.95
2023-04-02T06:42:52.702Z,20.33
2023-04-02T06:43:59.067Z,18.65
2023-04-02T06:45:03.224Z,20.23
2023-04-02T06:46:16.258Z,19.75
2023-04-02T06:47:28.008Z,19.00
2023-04-02T06:48:34.102Z,19.60
2023-04-02T06:49:43.233Z,19.13
2023-04-02T06:50:51.959Z,19.30
2023-04-02T06:51:59.431Z,19.35
2023-04-02T06:53:05.889Z,20.67
2023-04-02T06:54:15.527Z,20.97
2023-04-02T06:55:39.976Z,20.77
2023-04-02T06:56:46.917Z,19.65
2023-04-02T06:57:50.568Z,20.60
2023-04-02T06:58:54.278Z,20.67
2023-04-02T06:59:57.878Z,19.57
2023-04-02T07:01:01.584Z,20.52
2023-04-02T07:02:16.506Z,20.42
2023-04-02T07:03:25.226Z,20.48
2023-04-02T07:04:28.974Z,20.52
2023-04-02T07:05:32.899Z,20.47
2023-04-02T07:06:36.718Z,20.55
2023-04-02T07:07:42.097Z,19.95
2023-04-02T07:08:45.839Z,19.75
2023-04-02T07:09:49.447Z,21.10
2023-04-02T07:10:53.064Z,20.17
2023-04-02T07:11:56.712Z,19.95
2023-04-02T07:13:00.430Z,20.85
2023-04-02T07:14:04.320Z,21.05
2023-04-02T07:15:08.762Z,20.05
2023-04-02T07:16:17.016Z,20.77
2023-04-02T07:17:21.550Z,20.85
2023-04-02T07:18:28.453Z,20.35
2023-04-02T07:19:32.185Z,18.50
2023-04-02T07:20:36.781Z,19.50
2023-04-02T07:21:40.374Z,21.90
2023-04-02T07:22:45.686Z,19.63
2023-04-02T07:23:49.384Z,21.08
2023-04-02T07:24:53.265Z,20.55
2023-04-02T07:25:57.776Z,20.63
2023-04-02T07:27:01.443Z,20.73
2023-04-02T07:28:06.367Z,20.35
2023-04-02T07:29:14.954Z,20.10
2023-04-02T07:30:18.977Z,20.83
2023-04-02T07:31:25.013Z,20.25
2023-04-02T07:32:28.752Z,20.20
2023-04-02T07:33:32.584Z,21.23
2023-04-02T07:34:36.287Z,19.55
2023-04-02T07:35:39.965Z,20.20
2023-04-02T07:36:43.725Z,21.40
2023-04-02T07:37:48.983Z,21.10
2023-04-02T07:38:52.948Z,19.98
2023-04-02T07:39:56.681Z,20.40
2023-04-02T07:41:06.616Z,20.67
2023-04-02T07:42:10.687Z,19.98
2023-04-02T07:43:14.352Z,19.70
2023-04-02T07:44:17.978Z,18.85
2023-04-02T07:45:21.642Z,21.92
2023-04-02T07:46:30.914Z,20.08
2023-04-02T07:47:34.590Z,21.45
2023-04-02T07:48:38.281Z,20.30
2023-04-02T07:49:41.932Z,20.65
2023-04-02T07:50:45.492Z,18.80
2023-04-02T07:51:49.211Z,18.98
2023-04-02T07:52:54.520Z,19.83
2023-04-02T07:53:58.136Z,19.93
2023-04-02T07:55:01.931Z,19.30
2023-04-02T07:56:06.963Z,19.50
2023-04-02T07:57:10.615Z,21.15
2023-04-02T07:58:16.996Z,19.10
2023-04-02T07:59:20.606Z,20.70
2023-04-02T08:00:24.554Z,20.52
2023-04-02T08:01:29.201Z,20.90
2023-04-02T08:02:33.993Z,20.05
2023-04-02T08:03:37.858Z,21.38
2023-04-02T08:04:41.538Z,18.90
2023-04-02T08:05:50.075Z,20.55
2023-04-02T08:06:53.754Z,20.15
2023-04-02T08:07:59.088Z,20.08
2023-04-02T08:09:02.738Z,19.08
2023-04-02T08:10:07.242Z,19.57
2023-04-02T08:11:11.424Z,20.23
2023-04-02T08:12:15.535Z,20.40
2023-04-02T08:13:19.958Z,20.58
2023-04-02T08:14:23.564Z,18.55
2023-04-02T08:15:27.238Z,19.47
2023-04-02T08:16:45.122Z,18.38
2023-04-02T08:17:48.876Z,19.02
2023-04-02T08:18:52.822Z,17.42
2023-04-02T08:19:56.570Z,18.73
2023-04-02T08:21:00.839Z,19.30
2023-04-02T08:22:04.555Z,18.52
2023-04-02T08:23:14.899Z,19.02
2023-04-02T08:24:18.698Z,19.20
2023-04-02T08:25:22.283Z,17.45
2023-04-02T08:26:25.878Z,17.13
2023-04-02T08:27:29.462Z,18.20
2023-04-02T08:28:33.168Z,17.95
2023-04-02T08:29:36.788Z,19.13
2023-04-02T08:30:40.672Z,18.27
2023-04-02T08:31:44.327Z,18.93
2023-04-02T08:32:48.270Z,16.40
2023-04-02T08:33:51.976Z,16.92
2023-04-02T08:34:55.652Z,16.45
2023-04-02T08:35:59.484Z,17.35
2023-04-02T08:37:03.191Z,16.67
2023-04-02T08:38:07.036Z,16.75
2023-04-02T08:39:12.444Z,17.08
2023-04-02T08:40:24.446Z,17.33
2023-04-02T08:41:28.706Z,15.90
2023-04-02T08:42:39.853Z,15.90
2023-04-02T08:44:10.839Z,16.30
2023-04-02T08:45:25.454Z,16.40
2023-04-02T08:46:38.256Z,17.48
2023-04-02T08:47:43.678Z,15.98
2023-04-02T08:48:55.195Z,16.30
2023-04-02T08:50:02.429Z,16.88
2023-04-02T08:51:07.978Z,16.60
2023-04-02T08:52:22.959Z,17.23
2023-04-02T08:53:31.692Z,17.60
2023-04-02T08:54:38.187Z,16.20
2023-04-02T08:55:46.379Z,17.67
2023-04-02T08:56:56.296Z,16.67
2023-04-02T08:58:07.033Z,16.88
2023-04-02T08:59:21.934Z,16.85
2023-04-02T09:00:37.456Z,17.67
2023-04-02T09:01:49.776Z,15.38
2023-04-02T09:02:58.119Z,15.57
2023-04-02T09:04:03.238Z,16.70
2023-04-02T09:05:15.969Z,16.35
2023-04-02T09:06:21.883Z,16.80
2023-04-02T09:07:26.581Z,16.48
2023-04-02T09:08:32.199Z,16.30
2023-04-02T09:09:39.493Z,16.75
2023-04-02T09:10:49.840Z,16.15
2023-04-02T09:11:56.062Z,16.10
2023-04-02T09:13:00.728Z,15.82
2023-04-02T09:14:10.858Z,16.73
2023-04-02T09:15:31.821Z,16.80
2023-04-02T09:16:45.545Z,16.83
2023-04-02T09:17:53.961Z,17.07
2023-04-02T09:18:58.253Z,15.68
2023-04-02T09:20:08.373Z,16.50
2023-04-02T09:21:32.838Z,15.77
2023-04-02T09:22:36.533Z,16.42
2023-04-02T09:23:40.160Z,16.43
2023-04-02T09:24:45.507Z,15.63
2023-04-02T09:26:01.345Z,15.20
2023-04-02T09:27:19.183Z,15.43
2023-04-02T09:28:22.898Z,16.00
2023-04-02T09:29:50.333Z,16.03
2023-04-02T09:31:06.877Z,15.52
2023-04-02T09:32:40.377Z,14.68
2023-04-02T09:33:45.696Z,15.20
2023-04-02T09:34:49.354Z,15.35
2023-04-02T09:35:57.779Z,14.17
2023-04-02T09:37:10.077Z,13.75
2023-04-02T09:38:20.461Z,14.02
2023-04-02T09:39:25.773Z,14.23
2023-04-02T09:40:41.182Z,13.73
2023-04-02T09:41:48.177Z,14.17
2023-04-02T09:43:11.776Z,13.20
2023-04-02T09:44:21.360Z,14.27
2023-04-02T09:45:25.778Z,13.95
2023-04-02T09:46:29.492Z,13.93
2023-04-02T09:47:33.627Z,13.93
2023-04-02T09:48:39.705Z,14.77
2023-04-02T09:49:43.314Z,14.35
2023-04-02T09:50:46.904Z,13.68
2023-04-02T09:52:19.118Z,14.80
2023-04-02T09:53:31.094Z,14.10
2023-04-02T09:54:34.880Z,14.10
2023-04-02T09:55:40.421Z,13.27
2023-04-02T09:57:01.540Z,13.80
2023-04-02T09:58:14.578Z,14.02
2023-04-02T09:59:20.667Z,14.13
2023-04-02T10:00:41.805Z,13.25
2023-04-02T10:01:47.366Z,13.18
2023-04-02T10:03:04.022Z,13.82
2023-04-02T10:04:28.579Z,13.57
2023-04-02T10:06:51.349Z,14.82
2023-04-02T10:08:06.038Z,13.75
2023-04-02T10:09:31.198Z,13.68
2023-04-02T10:10:41.554Z,13.57
2023-04-02T10:11:46.701Z,13.30
2023-04-02T10:12:55.713Z,12.63
2023-04-02T10:14:02.047Z,13.73
2023-04-02T10:15:07.005Z,12.93
2023-04-02T10:16:14.718Z,13.07
2023-04-02T10:17:24.141Z,13.43
2023-04-02T10:18:41.184Z,12.75
2023-04-02T10:19:49.204Z,13.88
2023-04-02T10:20:55.196Z,12.63
2023-04-02T10:22:01.910Z,13.10
2023-04-02T10:23:06.524Z,14.00
2023-04-02T10:24:14.284Z,12.88
2023-04-02T10:25:20.344Z,12.90
2023-04-02T10:26:49.227Z,13.35
2023-04-02T10:27:59.605Z,12.15
2023-04-02T10:29:28.375Z,11.70
2023-04-02T10:30:39.457Z,12.40
2023-04-02T10:31:56.537Z,12.55
2023-04-02T10:33:04.152Z,13.40
2023-04-02T10:34:17.680Z,12.55
2023-04-02T10:35:33.585Z,12.17
2023-04-02T10:36:49.032Z,13.35
2023-04-02T10:38:18.832Z,12.02
2023-04-02T10:39:26.933Z,12.55
2023-04-02T10:40:37.415Z,13.20
2023-04-02T10:41:52.281Z,12.07
2023-04-02T10:43:10.861Z,12.27
2023-04-02T10:44:41.038Z,13.38
2023-04-02T10:45:49.662Z,11.85
2023-04-02T10:47:08.975Z,12.05
2023-04-02T10:48:22.659Z,12.50
2023-04-02T10:49:34.404Z,13.07
2023-04-02T10:50:46.851Z,13.23
2023-04-02T10:51:59.253Z,12.70
2023-04-02T10:53:11.828Z,12.23
2023-04-02T10:54:31.943Z,12.83
2023-04-02T10:55:38.097Z,12.63
2023-04-02T10:56:50.491Z,12.25
2023-04-02T10:58:01.118Z,12.23
2023-04-02T10:59:12.739Z,12.98
2023-04-02T11:00:23.298Z,13.73
2023-04-02T11:01:29.502Z,13.05
2023-04-02T11:02:39.354Z,13.90
2023-04-02T11:03:47.605Z,14.38
2023-04-02T11:04:55.411Z,13.45
2023-04-02T11:06:03.408Z,13.27
2023-04-02T11:07:14.383Z,13.68
2023-04-02T11:08:23.442Z,13.38
2023-04-02T11:09:32.327Z,13.75
2023-04-02T11:10:40.294Z,12.77
2023-04-02T11:11:47.506Z,14.80
2023-04-02T11:12:57.034Z,14.10
2023-04-02T11:14:04.298Z,14.38
2023-04-02T11:15:16.849Z,13.40
2023-04-02T11:16:20.871Z,14.45
2023-04-02T11:17:25.417Z,13.03
2023-04-02T11:18:30.793Z,13.52
2023-04-02T11:19:35.249Z,13.30
2023-04-02T11:20:58.257Z,13.52
2023-04-02T11:22:06.652Z,14.10
2023-04-02T11:23:12.965Z,13.57
2023-04-02T11:24:40.819Z,13.23
2023-04-02T11:25:45.951Z,13.85
2023-04-02T11:26:49.773Z,13.07
2023-04-02T11:27:55.254Z,13.80
2023-04-02T11:29:25.180Z,13.53
2023-04-02T11:30:29.356Z,12.52
2023-04-02T11:31:33.613Z,12.57
2023-04-02T11:32:39.711Z,12.50
2023-04-02T11:33:46.057Z,13.10
2023-04-02T11:35:19.252Z,12.43
2023-04-02T11:37:00.060Z,13.35
2023-04-02T11:38:24.151Z,13.50
2023-04-02T11:39:49.780Z,12.20
2023-04-02T11:40:54.070Z,13.02
2023-04-02T11:42:07.216Z,13.00
2023-04-02T11:43:57.759Z,13.57
2023-04-02T11:45:56.272Z,12.95
2023-04-02T11:47:19.121Z,13.82
2023-04-02T11:48:31.441Z,13.40
2023-04-02T11:49:40.413Z,14.07
2023-04-02T11:50:45.536Z,13.50
2023-04-02T11:51:54.371Z,13.98
2023-04-02T11:53:20.182Z,12.57
2023-04-02T11:54:26.985Z,14.57
2023-04-02T11:55:32.481Z,14.50
2023-04-02T11:56:42.610Z,14.48
2023-04-02T11:57:56.665Z,13.80
2023-04-02T11:59:10.936Z,12.82
2023-04-02T12:00:32.601Z,13.40
2023-04-02T12:01:51.313Z,13.73
2023-04-02T12:03:13.893Z,13.27
2023-04-02T12:04:51.935Z,13.40
2023-04-02T12:06:03.751Z,14.27
2023-04-02T12:07:47.463Z,14.30
2023-04-02T12:09:01.691Z,14.73
2023-04-02T12:10:17.104Z,14.63
2023-04-02T12:11:34.218Z,13.43
2023-04-02T12:12:39.814Z,14.38
2023-04-02T12:13:54.608Z,14.20
2023-04-02T12:14:59.306Z,12.43
2023-04-02T12:16:04.955Z,13.80
2023-04-02T12:17:21.066Z,13.23
2023-04-02T12:18:25.884Z,12.95
2023-04-02T12:19:31.205Z,13.35
2023-04-02T12:20:35.788Z,13.30
2023-04-02T12:21:46.798Z,13.82
2023-04-02T12:22:52.758Z,13.75
2023-04-02T12:24:02.860Z,13.00
2023-04-02T12:25:20.222Z,14.02
2023-04-02T12:26:30.827Z,13.73
2023-04-02T12:27:34.516Z,13.00
2023-04-02T12:28:38.244Z,13.63
2023-04-02T12:29:42.297Z,14.18
2023-04-02T12:30:46.649Z,13.80
2023-04-02T12:31:52.768Z,13.03
2023-04-02T12:32:56.414Z,14.20
2023-04-02T12:34:00.157Z,14.80
2023-04-02T12:35:05.681Z,14.40
2023-04-02T12:36:21.158Z,14.15
2023-04-02T12:37:26.619Z,14.03
2023-04-02T12:38:31.566Z,13.98
2023-04-02T12:39:35.856Z,14.38
2023-04-02T12:40:39.503Z,14.52
2023-04-02T12:41:43.147Z,14.18
2023-04-02T12:42:46.817Z,13.40
2023-04-02T12:43:58.318Z,12.88
2023-04-02T12:45:02.363Z,12.27
2023-04-02T12:46:09.015Z,14.38
2023-04-02T12:47:14.991Z,13.02
2023-04-02T12:48:19.052Z,14.60
2023-04-02T12:49:32.067Z,12.85
2023-04-02T12:50:36.153Z,13.80
2023-04-02T12:51:40.429Z,13.45
2023-04-02T12:53:02.082Z,13.15
2023-04-02T12:54:06.456Z,13.20
2023-04-02T12:55:23.353Z,13.50
2023-04-02T12:56:26.936Z,12.60
2023-04-02T12:57:38.940Z,14.70
2023-04-02T12:58:43.625Z,13.05
2023-04-02T12:59:47.294Z,14.13
2023-04-02T13:00:50.915Z,13.18
2023-04-02T13:01:58.812Z,14.50
2023-04-02T13:03:18.595Z,13.80
2023-04-02T13:04:22.449Z,14.60
2023-04-02T13:05:38.245Z,13.90
2023-04-02T13:06:48.367Z,13.63
2023-04-02T13:07:52.027Z,13.82
2023-04-02T13:08:56.189Z,15.07
2023-04-02T13:10:01.525Z,14.10
2023-04-02T13:11:07.089Z,14.97
2023-04-02T13:12:26.237Z,14.23
2023-04-02T13:13:33.663Z,13.88
2023-04-02T13:14:38.228Z,14.25
2023-04-02T13:15:42.427Z,13.32
2023-04-02T13:16:46.338Z,14.27
2023-04-02T13:18:03.431Z,13.35
2023-04-02T13:19:23.675Z,14.13
2023-04-02T13:20:32.212Z,12.98
2023-04-02T13:21:36.284Z,14.65
2023-04-02T13:22:39.902Z,13.33
2023-04-02T13:23:44.016Z,14.63
2023-04-02T13:24:47.679Z,14.65
2023-04-02T13:25:51.962Z,14.23
2023-04-02T13:26:58.279Z,13.43
2023-04-02T13:28:02.638Z,14.70
2023-04-02T13:29:21.446Z,15.00
2023-04-02T13:30:26.778Z,13.90
2023-04-02T13:31:31.296Z,15.07
2023-04-02T13:32:34.956Z,14.00
2023-04-02T13:33:38.760Z,13.60
2023-04-02T13:34:44.021Z,14.88
2023-04-02T13:35:47.693Z,14.10
2023-04-02T13:36:51.372Z,14.40
2023-04-02T13:37:55.102Z,14.05
2023-04-02T13:38:58.975Z,13.40
2023-04-02T13:40:04.244Z,14.30
2023-04-02T13:41:11.842Z,13.73
2023-04-02T13:42:15.546Z,14.05
2023-04-02T13:43:20.799Z,13.90
2023-04-02T13:44:26.119Z,12.83
2023-04-02T13:45:32.001Z,12.27
2023-04-02T13:46:36.313Z,14.13
2023-04-02T13:47:41.220Z,13.75
2023-04-02T13:48:45.121Z,14.00
2023-04-02T13:49:50.469Z,14.83
2023-04-02T13:50:54.366Z,14.13
2023-04-02T13:52:00.237Z,14.15
2023-04-02T13:53:10.234Z,13.98
2023-04-02T13:54:21.153Z,15.25
2023-04-02T13:55:27.896Z,14.30
2023-04-02T13:56:31.650Z,13.35
2023-04-02T13:57:35.557Z,14.10
2023-04-02T13:58:39.459Z,13.13
2023-04-02T13:59:43.103Z,13.18
2023-04-02T14:00:47.914Z,14.57
2023-04-02T14:01:54.584Z,13.40
2023-04-02T14:03:07.148Z,14.02
2023-04-02T14:04:13.808Z,14.70
2023-04-02T14:05:32.410Z,13.68
2023-04-02T14:07:07.132Z,14.97
2023-04-02T14:08:16.305Z,13.93
2023-04-02T14:09:28.016Z,15.30
2023-04-02T14:10:45.336Z,15.13
2023-04-02T14:11:56.647Z,15.00
2023-04-02T14:13:17.191Z,13.13
2023-04-02T14:14:35.161Z,14.20
2023-04-02T14:15:51.166Z,15.55
2023-04-02T14:17:08.595Z,14.45
2023-04-02T14:18:29.221Z,14.25
2023-04-02T14:19:54.137Z,13.87
2023-04-02T14:21:09.156Z,13.70
2023-04-02T14:22:22.362Z,14.75
2023-04-02T14:23:45.756Z,14.70
2023-04-02T14:24:57.938Z,15.77
2023-04-02T14:26:13.677Z,13.17
2023-04-02T14:27:27.948Z,14.57
2023-04-02T14:28:41.879Z,14.15
2023-04-02T14:29:52.389Z,14.45
2023-04-02T14:31:04.253Z,14.25
2023-04-02T14:32:11.430Z,14.37
2023-04-02T14:33:25.477Z,15.02
2023-04-02T14:34:37.007Z,14.93
2023-04-02T14:35:54.507Z,13.50
2023-04-02T14:37:13.682Z,15.23
2023-04-02T14:38:25.723Z,14.43
2023-04-02T14:39:38.744Z,14.88
2023-04-02T14:40:48.409Z,14.88
2023-04-02T14:41:57.624Z,14.02
2023-04-02T14:43:05.660Z,14.80
2023-04-02T14:44:12.211Z,14.37
2023-04-02T14:45:25.749Z,14.73
2023-04-02T14:46:31.485Z,14.55
2023-04-02T14:47:40.347Z,14.63
2023-04-02T14:48:49.328Z,13.80
2023-04-02T14:49:56.712Z,15.20
2023-04-02T14:51:04.596Z,14.70
2023-04-02T14:52:14.942Z,15.68
2023-04-02T14:53:26.272Z,16.35
2023-04-02T14:54:35.292Z,15.35